LGSA/CHQ METAR and TAF weather

Enter ICAO airport designator
Station Type Date Time Source
LGSA METAR 2024/07/24 11:20 UTC NOAA

LGSA 241120Z 33006KT 9999 FEW020 32/19 Q1007


Station Type Date Time Source
LGSA Decoded METAR 2024/07/24 11:20 UTC NOAA

Souda Airport , Greece (LGSA) 35-29N 024-07E 151M
Jul 24, 2024 - 07:20 AM EDT / 2024.07.24 1120 UTC
Wind: from the NNW (330 degrees) at 7 MPH (6 KT):0
Visibility: greater than 7 mile(s):0
Sky conditions: mostly clear
Temperature: 89 F (32 C)
Dew Point: 66 F (19 C)
Relative Humidity: 46%
Pressure (altimeter): 29.74 in. Hg (1007 hPa)
ob: LGSA 241120Z 33006KT 9999 FEW020 32/19 Q1007
cycle: 11

Station Type Date Time Source
LGSA TAF 2024/07/24 12:12 UTC NOAA